ADDS METAR Data INFO
IDs: Format: Raw Decoded Include TAF

Data at: 2144 UTC 24 Feb 2018

METAR for:KRZT (Chillicothe/Ross Cnt, OH, US)
Text:KRZT 242135Z AUTO 11004KT 10SM -RA OVC011 11/10 A2999 RMK AO2
Temperature: 11.0°C ( 52°F)
Dewpoint: 10.0°C ( 50°F) [RH = 94%]
Pressure (altimeter):29.99 inches Hg (1015.7 mb)
Winds:from the ESE (110 degrees) at 5 MPH (4 knots; 2.1 m/s)
Visibility:10 or more sm (16+ km)
Ceiling:1100 feet AGL
Clouds: overcast cloud deck at 1100 feet AGL
Weather:-RA (light rain)
QC Flag:automated observation with no human augmentation